createdAt,value
2019-03-15T00:01:36.149Z,14.60
2019-03-15T00:04:05.051Z,18.67
2019-03-15T00:06:34.136Z,14.43
2019-03-15T00:09:03.801Z,13.53
2019-03-15T00:11:32.826Z,14.03
2019-03-15T00:14:02.028Z,15.15
2019-03-15T00:16:31.186Z,16.52
2019-03-15T00:19:00.286Z,20.90
2019-03-15T00:21:29.232Z,15.15
2019-03-15T00:23:58.519Z,19.73
2019-03-15T00:26:27.528Z,18.60
2019-03-15T00:28:56.552Z,16.50
2019-03-15T00:31:25.653Z,13.75
2019-03-15T00:33:54.769Z,21.50
2019-03-15T00:36:24.052Z,11.70
2019-03-15T00:38:53.893Z,14.35
2019-03-15T00:41:23.110Z,18.85
2019-03-15T00:43:52.199Z,12.95
2019-03-15T00:46:21.277Z,17.57
2019-03-15T00:48:50.227Z,13.70
2019-03-15T00:51:19.096Z,14.95
2019-03-15T00:53:47.994Z,10.23
2019-03-15T00:56:16.655Z,14.90
2019-03-15T00:58:45.604Z,13.32
2019-03-15T01:01:14.435Z,20.25
2019-03-15T01:03:43.711Z,19.23
2019-03-15T01:06:12.847Z,14.23
2019-03-15T01:08:42.290Z,12.75
2019-03-15T01:11:11.357Z,18.90
2019-03-15T01:13:40.277Z,18.32
2019-03-15T01:16:09.492Z,20.40
2019-03-15T01:18:38.529Z,14.15
2019-03-15T01:21:07.730Z,17.00
2019-03-15T01:23:37.011Z,20.65
2019-03-15T01:26:06.022Z,17.80
2019-03-15T01:28:35.257Z,16.52
2019-03-15T01:31:04.353Z,17.32
2019-03-15T01:33:33.364Z,16.27
2019-03-15T01:36:02.471Z,17.75
2019-03-15T01:38:31.380Z,19.15
2019-03-15T01:41:00.401Z,18.25
2019-03-15T01:43:29.347Z,20.37
2019-03-15T01:45:58.299Z,14.13
2019-03-15T01:48:27.346Z,23.20
2019-03-15T01:50:56.445Z,19.32
2019-03-15T01:53:25.558Z,19.77
2019-03-15T01:55:54.769Z,15.98
2019-03-15T01:58:23.938Z,17.65
2019-03-15T02:00:53.037Z,20.45
2019-03-15T02:03:22.153Z,20.62
2019-03-15T02:05:51.794Z,23.67
2019-03-15T02:08:20.850Z,14.78
2019-03-15T02:10:49.833Z,14.33
2019-03-15T02:13:18.956Z,13.35
2019-03-15T02:15:47.935Z,17.12
2019-03-15T02:18:16.926Z,16.30
2019-03-15T02:20:45.865Z,16.70
2019-03-15T02:23:14.915Z,28.77
2019-03-15T02:25:44.022Z,15.90
2019-03-15T02:28:13.008Z,12.58
2019-03-15T02:30:41.973Z,16.82
2019-03-15T02:33:10.960Z,14.35
2019-03-15T02:35:40.037Z,17.95
2019-03-15T02:38:09.179Z,13.35
2019-03-15T02:40:38.814Z,14.60
2019-03-15T02:43:08.088Z,10.53
2019-03-15T02:45:37.210Z,16.45
2019-03-15T02:48:06.217Z,14.15
2019-03-15T02:50:35.327Z,12.73
2019-03-15T02:53:04.392Z,15.48
2019-03-15T02:55:33.355Z,11.93
2019-03-15T02:58:02.399Z,11.93
2019-03-15T03:00:31.512Z,11.73
2019-03-15T03:03:00.571Z,11.97
2019-03-15T03:05:29.519Z,10.38
2019-03-15T03:07:58.469Z,17.62
2019-03-15T03:10:29.205Z,14.30
2019-03-15T03:12:58.368Z,12.68
2019-03-15T03:15:27.343Z,8.95
2019-03-15T03:17:56.353Z,14.90
2019-03-15T03:20:25.290Z,12.90
2019-03-15T03:22:54.295Z,12.00
2019-03-15T03:25:23.354Z,16.45
2019-03-15T03:27:52.358Z,14.58
2019-03-15T03:30:21.508Z,10.25
2019-03-15T03:32:50.589Z,13.95
2019-03-15T03:35:19.475Z,10.63
2019-03-15T03:37:48.591Z,14.73
2019-03-15T03:40:20.085Z,17.82
2019-03-15T03:42:48.370Z,11.48
2019-03-15T03:45:17.454Z,17.12
2019-03-15T03:47:46.425Z,14.18
2019-03-15T03:50:15.515Z,16.02
2019-03-15T03:52:44.599Z,12.45
2019-03-15T03:55:13.655Z,12.68
2019-03-15T03:57:42.622Z,12.40
2019-03-15T04:00:17.440Z,14.73
2019-03-15T04:02:46.564Z,9.58
2019-03-15T04:05:15.746Z,12.63
2019-03-15T04:07:44.525Z,15.65
2019-03-15T04:10:13.557Z,9.45
2019-03-15T04:12:42.511Z,12.20
2019-03-15T04:15:12.035Z,9.55
2019-03-15T04:17:41.171Z,12.07
2019-03-15T04:20:12.227Z,10.58
2019-03-15T04:22:41.557Z,10.32
2019-03-15T04:25:11.209Z,13.72
2019-03-15T04:27:40.294Z,9.43
2019-03-15T04:30:11.830Z,12.85
2019-03-15T04:32:40.717Z,10.65
2019-03-15T04:35:09.806Z,10.85
2019-03-15T04:37:38.768Z,14.50
2019-03-15T04:40:10.514Z,12.45
2019-03-15T04:42:39.550Z,12.93
2019-03-15T04:45:09.012Z,11.55
2019-03-15T04:47:38.100Z,13.10
2019-03-15T04:50:08.023Z,13.98
2019-03-15T04:52:37.278Z,11.22
2019-03-15T04:55:06.740Z,11.60
2019-03-15T04:57:35.709Z,10.60
2019-03-15T05:00:06.921Z,11.38
2019-03-15T05:02:35.983Z,13.58
2019-03-15T05:05:06.368Z,11.05
2019-03-15T05:07:35.397Z,9.95
2019-03-15T05:10:06.232Z,16.17
2019-03-15T05:12:35.177Z,15.20
2019-03-15T05:15:04.826Z,12.13
2019-03-15T05:17:33.809Z,11.25
2019-03-15T05:20:02.936Z,9.70
2019-03-15T05:22:31.916Z,8.68
2019-03-15T05:25:00.934Z,11.97
2019-03-15T05:27:29.790Z,10.93
2019-03-15T05:29:58.805Z,7.15
2019-03-15T05:32:30.833Z,9.08
2019-03-15T05:34:58.482Z,9.75
2019-03-15T05:37:27.376Z,11.33
2019-03-15T05:39:56.685Z,9.15
2019-03-15T05:42:25.931Z,17.23
2019-03-15T05:44:54.980Z,11.22
2019-03-15T05:47:24.283Z,12.65
2019-03-15T05:49:53.423Z,10.48
2019-03-15T05:52:22.415Z,11.65
2019-03-15T05:54:51.337Z,17.67
2019-03-15T05:57:20.471Z,12.60
2019-03-15T05:59:49.356Z,17.20
2019-03-15T06:02:18.365Z,14.83
2019-03-15T06:04:47.326Z,12.80
2019-03-15T06:07:16.683Z,10.13
2019-03-15T06:09:45.748Z,11.00
2019-03-15T06:12:14.792Z,10.35
2019-03-15T06:14:46.784Z,12.33
2019-03-15T06:17:14.774Z,13.53
2019-03-15T06:19:44.159Z,11.97
2019-03-15T06:22:13.124Z,13.53
2019-03-15T06:24:42.160Z,11.03
2019-03-15T06:27:11.242Z,15.80
2019-03-15T06:29:40.305Z,11.20
2019-03-15T06:32:09.507Z,13.68
2019-03-15T06:34:39.600Z,10.70
2019-03-15T06:37:08.924Z,14.28
2019-03-15T06:39:37.861Z,16.40
2019-03-15T06:42:06.938Z,15.78
2019-03-15T06:44:37.475Z,13.13
2019-03-15T06:47:06.909Z,11.00
2019-03-15T06:49:35.873Z,13.70
2019-03-15T06:52:04.655Z,14.28
2019-03-15T06:54:33.809Z,11.57
2019-03-15T06:57:03.040Z,11.75
2019-03-15T06:59:33.677Z,11.40
2019-03-15T07:02:02.783Z,13.62
2019-03-15T07:04:31.947Z,8.80
2019-03-15T07:07:00.936Z,13.05
2019-03-15T07:09:31.029Z,12.53
2019-03-15T07:12:09.428Z,8.70
2019-03-15T07:14:31.248Z,14.38
2019-03-15T07:17:00.361Z,10.13
2019-03-15T07:19:30.590Z,11.63
2019-03-15T07:21:59.659Z,12.18
2019-03-15T07:24:28.730Z,11.53
2019-03-15T07:27:11.576Z,11.90
2019-03-15T07:29:28.430Z,11.43
2019-03-15T07:31:57.685Z,6.97
2019-03-15T07:34:26.676Z,9.35
2019-03-15T07:36:55.833Z,8.50
2019-03-15T07:39:26.612Z,5.97
2019-03-15T07:41:55.511Z,9.95
2019-03-15T07:44:24.488Z,9.55
2019-03-15T07:46:53.723Z,8.48
2019-03-15T07:49:22.846Z,9.48
2019-03-15T07:51:55.114Z,6.75
2019-03-15T07:54:37.037Z,13.68
2019-03-15T07:56:54.745Z,10.75
2019-03-15T07:59:23.776Z,8.70
2019-03-15T08:01:52.957Z,8.75
2019-03-15T08:04:21.787Z,6.75
2019-03-15T08:06:50.822Z,10.30
2019-03-15T08:09:19.702Z,12.45
2019-03-15T08:11:48.807Z,4.75
2019-03-15T08:14:17.833Z,9.13
2019-03-15T08:16:46.987Z,9.68
2019-03-15T08:19:15.870Z,6.72
2019-03-15T08:21:44.738Z,11.35
2019-03-15T08:24:13.851Z,10.65
2019-03-15T08:26:42.977Z,7.35
2019-03-15T08:29:12.199Z,7.58
2019-03-15T08:31:41.223Z,8.08
2019-03-15T08:34:10.262Z,5.50
2019-03-15T08:36:39.550Z,3.75
2019-03-15T08:39:08.597Z,6.47
2019-03-15T08:41:37.345Z,3.77
2019-03-15T08:44:06.154Z,6.50
2019-03-15T08:46:35.049Z,5.87
2019-03-15T08:49:04.351Z,5.90
2019-03-15T08:51:33.253Z,6.25
2019-03-15T08:54:02.327Z,8.00
2019-03-15T08:56:31.446Z,4.55
2019-03-15T08:59:00.482Z,4.90
2019-03-15T09:01:29.347Z,4.83
2019-03-15T09:03:58.188Z,8.55
2019-03-15T09:06:27.262Z,5.60
2019-03-15T09:08:56.621Z,4.72
2019-03-15T09:11:25.758Z,4.35
2019-03-15T09:13:54.699Z,3.62
2019-03-15T09:16:23.989Z,3.72
2019-03-15T09:18:55.526Z,3.12
2019-03-15T09:21:23.682Z,4.42
2019-03-15T09:23:52.982Z,3.95
2019-03-15T09:26:22.063Z,3.98
2019-03-15T09:28:51.051Z,5.55
2019-03-15T09:31:20.032Z,5.65
2019-03-15T09:33:49.004Z,4.70
2019-03-15T09:36:18.059Z,4.70
2019-03-15T09:38:47.047Z,5.10
2019-03-15T09:41:16.039Z,4.47
2019-03-15T09:43:45.627Z,6.00
2019-03-15T09:46:14.854Z,6.75
2019-03-15T09:48:44.075Z,4.50
2019-03-15T09:51:13.208Z,5.67
2019-03-15T09:53:42.098Z,7.25
2019-03-15T09:56:10.955Z,5.35
2019-03-15T09:58:39.879Z,6.35
2019-03-15T10:01:09.008Z,6.37
2019-03-15T10:03:38.175Z,7.47
2019-03-15T10:06:15.720Z,6.70
2019-03-15T10:08:39.671Z,6.25
2019-03-15T10:11:08.696Z,6.37
2019-03-15T10:13:37.794Z,5.58
2019-03-15T10:16:06.713Z,5.78
2019-03-15T10:18:35.751Z,5.00
2019-03-15T10:21:04.835Z,5.87
2019-03-15T10:23:33.848Z,5.37
2019-03-15T10:26:02.876Z,5.78
2019-03-15T10:28:31.959Z,15.00
2019-03-15T10:31:00.943Z,8.28
2019-03-15T10:33:29.841Z,7.42
2019-03-15T10:35:58.877Z,8.50
2019-03-15T10:38:27.906Z,8.65
2019-03-15T10:40:56.754Z,9.05
2019-03-15T10:43:25.880Z,6.10
2019-03-15T10:45:54.739Z,11.50
2019-03-15T10:48:25.391Z,8.68
2019-03-15T10:50:54.101Z,11.28
2019-03-15T10:53:23.118Z,5.22
2019-03-15T10:56:00.246Z,9.00
2019-03-15T10:58:22.542Z,8.10
2019-03-15T11:00:51.416Z,8.85
2019-03-15T11:03:20.340Z,8.70
2019-03-15T11:05:49.227Z,13.38
2019-03-15T11:08:18.156Z,10.23
2019-03-15T11:10:47.316Z,11.30
2019-03-15T11:13:16.446Z,13.70
2019-03-15T11:15:45.312Z,10.32
2019-03-15T11:18:14.265Z,14.53
2019-03-15T11:20:43.252Z,14.53
2019-03-15T11:23:12.328Z,14.28
2019-03-15T11:25:41.396Z,14.90
2019-03-15T11:28:10.223Z,15.20
2019-03-15T11:30:39.187Z,14.90
2019-03-15T11:33:08.275Z,17.30
2019-03-15T11:35:37.224Z,16.67
2019-03-15T11:38:06.266Z,16.48
2019-03-15T11:40:37.872Z,14.23
2019-03-15T11:43:06.235Z,19.98
2019-03-15T11:45:35.415Z,12.05
2019-03-15T11:48:04.690Z,16.57
2019-03-15T11:50:34.175Z,17.57
2019-03-15T11:53:03.125Z,26.33
2019-03-15T11:55:32.101Z,15.70
2019-03-15T11:58:00.931Z,15.93
2019-03-15T12:00:29.948Z,18.02
2019-03-15T12:02:58.825Z,17.07
2019-03-15T12:05:27.807Z,22.75
2019-03-15T12:07:56.684Z,17.45
2019-03-15T12:10:25.577Z,20.52
2019-03-15T12:12:54.468Z,18.87
2019-03-15T12:15:23.349Z,20.20
2019-03-15T12:17:52.243Z,22.20
2019-03-15T12:20:21.052Z,14.53
2019-03-15T12:22:49.951Z,18.32
2019-03-15T12:25:19.012Z,24.90
2019-03-15T12:27:47.808Z,20.27
2019-03-15T12:30:17.548Z,15.90
2019-03-15T12:32:46.543Z,17.87
2019-03-15T12:35:16.289Z,15.75
2019-03-15T12:37:45.435Z,17.02
2019-03-15T12:40:16.333Z,18.52
2019-03-15T12:42:45.525Z,18.98
2019-03-15T12:45:14.775Z,14.38
2019-03-15T12:47:43.701Z,14.18
2019-03-15T12:50:14.866Z,13.68
2019-03-15T12:52:48.227Z,14.28
2019-03-15T12:55:15.065Z,15.10
2019-03-15T12:57:48.800Z,16.97
2019-03-15T13:00:20.327Z,16.42
2019-03-15T13:02:49.503Z,17.52
2019-03-15T13:05:18.354Z,13.85
2019-03-15T13:07:47.323Z,15.35
2019-03-15T13:10:20.698Z,13.25
2019-03-15T13:12:49.869Z,14.60
2019-03-15T13:15:18.899Z,17.23
2019-03-15T13:17:47.999Z,15.25
2019-03-15T13:20:17.439Z,21.45
2019-03-15T13:22:46.557Z,11.18
2019-03-15T13:25:15.420Z,15.95
2019-03-15T13:27:44.592Z,15.88
2019-03-15T13:30:15.844Z,10.08
2019-03-15T13:32:44.775Z,11.75
2019-03-15T13:35:13.966Z,12.40
2019-03-15T13:37:45.085Z,17.23
2019-03-15T13:40:18.767Z,8.53
2019-03-15T13:42:49.362Z,14.60
2019-03-15T13:45:18.284Z,15.65
2019-03-15T13:47:47.365Z,19.25
2019-03-15T13:50:17.689Z,11.38
2019-03-15T13:52:46.780Z,8.23
2019-03-15T13:55:15.542Z,7.58
2019-03-15T13:57:44.524Z,11.78
2019-03-15T14:00:18.203Z,13.43
2019-03-15T14:02:47.237Z,13.68
2019-03-15T14:05:16.226Z,9.60
2019-03-15T14:07:45.094Z,10.53
2019-03-15T14:10:16.268Z,10.68
2019-03-15T14:12:45.508Z,12.65
2019-03-15T14:15:16.439Z,8.98
2019-03-15T14:17:45.299Z,11.10
2019-03-15T14:20:14.633Z,8.60
2019-03-15T14:22:43.591Z,10.58
2019-03-15T14:25:21.560Z,11.80
2019-03-15T14:27:50.753Z,8.43
2019-03-15T14:30:19.660Z,11.08
2019-03-15T14:32:48.679Z,11.53
2019-03-15T14:35:17.615Z,8.20
2019-03-15T14:37:46.716Z,10.85
2019-03-15T14:40:15.593Z,9.20
2019-03-15T14:42:44.468Z,7.65
2019-03-15T14:45:14.224Z,9.45
2019-03-15T14:47:43.250Z,8.38
2019-03-15T14:50:13.189Z,7.40
2019-03-15T14:52:41.995Z,8.55
2019-03-15T14:55:15.816Z,8.55
2019-03-15T14:57:52.347Z,9.88
2019-03-15T15:00:21.839Z,7.45
2019-03-15T15:02:50.652Z,6.87
2019-03-15T15:05:19.534Z,12.63
2019-03-15T15:07:48.350Z,9.55
2019-03-15T15:10:17.913Z,8.23
2019-03-15T15:12:47.101Z,6.37
2019-03-15T15:15:17.472Z,6.62
2019-03-15T15:17:46.704Z,8.43
2019-03-15T15:20:15.508Z,5.70
2019-03-15T15:22:47.220Z,7.90
2019-03-15T15:25:17.636Z,7.72
2019-03-15T15:27:46.449Z,9.93
2019-03-15T15:30:16.309Z,8.43
2019-03-15T15:32:45.207Z,5.30
2019-03-15T15:35:14.514Z,8.45
2019-03-15T15:37:43.300Z,7.35
2019-03-15T15:40:14.187Z,7.58
2019-03-15T15:42:43.209Z,14.25
2019-03-15T15:45:12.412Z,9.13
2019-03-15T15:47:41.395Z,7.70
2019-03-15T15:50:12.456Z,6.78
2019-03-15T15:52:41.294Z,10.65
2019-03-15T15:55:16.870Z,9.28
2019-03-15T15:57:46.202Z,8.85
2019-03-15T16:00:18.432Z,10.58
2019-03-15T16:02:47.381Z,8.15
2019-03-15T16:05:16.489Z,10.13
2019-03-15T16:07:45.446Z,9.13
2019-03-15T16:10:18.487Z,6.78
2019-03-15T16:12:47.618Z,9.67
2019-03-15T16:15:20.639Z,7.97
2019-03-15T16:17:49.487Z,7.45
2019-03-15T16:20:18.282Z,8.80
2019-03-15T16:22:47.349Z,9.35
2019-03-15T16:25:16.368Z,10.50
2019-03-15T16:27:45.523Z,12.50
2019-03-15T16:30:16.717Z,10.88
2019-03-15T16:32:45.641Z,12.98
2019-03-15T16:35:14.809Z,10.55
2019-03-15T16:37:43.860Z,11.95
2019-03-15T16:40:13.941Z,9.35
2019-03-15T16:42:42.964Z,9.50
2019-03-15T16:45:20.885Z,7.20
2019-03-15T16:47:49.832Z,8.43
2019-03-15T16:50:18.791Z,9.58
2019-03-15T16:52:47.618Z,6.97
2019-03-15T16:55:16.498Z,8.83
2019-03-15T16:57:45.632Z,7.08
2019-03-15T17:00:17.817Z,7.50
2019-03-15T17:02:47.033Z,4.28
2019-03-15T17:05:15.966Z,6.33
2019-03-15T17:07:44.873Z,5.40
2019-03-15T17:10:15.155Z,4.08
2019-03-15T17:12:44.112Z,4.20
2019-03-15T17:15:24.671Z,3.52
2019-03-15T17:17:53.745Z,4.17
2019-03-15T17:20:22.620Z,4.75
2019-03-15T17:22:51.468Z,3.27
2019-03-15T17:25:20.244Z,5.75
2019-03-15T17:27:49.086Z,4.05
2019-03-15T17:30:18.477Z,6.28
2019-03-15T17:32:47.354Z,7.58
2019-03-15T17:35:17.173Z,3.10
2019-03-15T17:37:46.018Z,6.70
2019-03-15T17:40:17.363Z,5.30
2019-03-15T17:42:46.261Z,6.92
2019-03-15T17:45:15.419Z,7.12
2019-03-15T17:47:44.359Z,7.05
2019-03-15T17:50:21.568Z,3.58
2019-03-15T17:52:50.620Z,5.22
2019-03-15T17:55:19.446Z,5.95
2019-03-15T17:57:48.347Z,6.65
2019-03-15T18:00:27.170Z,7.75
2019-03-15T18:02:56.009Z,7.92
2019-03-15T18:05:25.010Z,7.28
2019-03-15T18:07:53.954Z,8.90
2019-03-15T18:10:22.977Z,8.45
2019-03-15T18:12:51.772Z,12.55
2019-03-15T18:15:20.564Z,6.00
2019-03-15T18:17:49.619Z,6.50
2019-03-15T18:20:18.946Z,9.98
2019-03-15T18:22:47.872Z,9.30
2019-03-15T18:25:16.861Z,11.60
2019-03-15T18:27:45.950Z,6.80
2019-03-15T18:30:16.049Z,7.53
2019-03-15T18:32:45.034Z,9.20
2019-03-15T18:35:14.071Z,11.35
2019-03-15T18:37:43.041Z,7.25
2019-03-15T18:40:19.612Z,9.65
2019-03-15T18:42:48.667Z,12.10
2019-03-15T18:45:18.166Z,14.05
2019-03-15T18:47:47.172Z,15.60
2019-03-15T18:50:24.438Z,12.95
2019-03-15T18:52:53.298Z,12.03
2019-03-15T18:55:22.200Z,8.23
2019-03-15T18:57:51.193Z,10.63
2019-03-15T19:00:21.200Z,10.58
2019-03-15T19:02:50.238Z,12.78
2019-03-15T19:05:19.247Z,11.00
2019-03-15T19:07:48.334Z,8.58
2019-03-15T19:10:17.384Z,9.08
2019-03-15T19:12:46.338Z,7.35
2019-03-15T19:15:20.488Z,10.35
2019-03-15T19:17:49.353Z,12.47
2019-03-15T19:20:18.326Z,18.07
2019-03-15T19:22:47.112Z,6.15
2019-03-15T19:25:16.353Z,9.73
2019-03-15T19:27:47.946Z,7.83
2019-03-15T19:30:18.324Z,12.85
2019-03-15T19:32:47.311Z,12.88
2019-03-15T19:35:16.391Z,12.73
2019-03-15T19:37:45.327Z,10.68
2019-03-15T19:40:15.691Z,7.65
2019-03-15T19:42:45.718Z,14.90
2019-03-15T19:45:15.923Z,8.03
2019-03-15T19:47:44.880Z,12.78
2019-03-15T19:50:19.926Z,10.13
2019-03-15T19:52:48.870Z,8.63
2019-03-15T19:55:17.901Z,9.33
2019-03-15T19:57:46.921Z,10.15
2019-03-15T20:00:17.138Z,10.48
2019-03-15T20:02:46.272Z,9.58
2019-03-15T20:05:15.197Z,6.95
2019-03-15T20:07:44.315Z,16.20
2019-03-15T20:10:16.709Z,12.82
2019-03-15T20:12:45.949Z,12.75
2019-03-15T20:15:17.910Z,15.03
2019-03-15T20:17:47.025Z,13.88
2019-03-15T20:20:17.196Z,17.45
2019-03-15T20:22:46.418Z,7.35
2019-03-15T20:25:16.252Z,13.93
2019-03-15T20:27:46.619Z,12.85
2019-03-15T20:30:26.670Z,10.40
2019-03-15T20:32:53.782Z,11.80
2019-03-15T20:35:23.101Z,12.30
2019-03-15T20:37:52.265Z,13.60
2019-03-15T20:40:21.054Z,10.05
2019-03-15T20:42:50.372Z,14.15
2019-03-15T20:45:27.536Z,15.03
2019-03-15T20:47:56.755Z,12.55
2019-03-15T20:50:26.023Z,10.90
2019-03-15T20:53:07.647Z,15.13
2019-03-15T20:55:28.452Z,15.15
2019-03-15T20:57:56.699Z,12.10
2019-03-15T21:00:35.335Z,8.33
2019-03-15T21:02:57.128Z,14.87
2019-03-15T21:05:26.544Z,12.80
2019-03-15T21:07:55.948Z,12.30
2019-03-15T21:10:25.334Z,11.08
2019-03-15T21:12:54.755Z,10.58
2019-03-15T21:15:24.049Z,11.68
2019-03-15T21:17:53.338Z,12.75
2019-03-15T21:20:23.021Z,9.30
2019-03-15T21:22:52.074Z,11.78
2019-03-15T21:25:21.043Z,10.00
2019-03-15T21:27:54.115Z,11.33
2019-03-15T21:30:27.344Z,10.50
2019-03-15T21:32:56.513Z,8.78
2019-03-15T21:35:25.355Z,12.07
2019-03-15T21:37:54.357Z,12.30
2019-03-15T21:40:23.486Z,8.60
2019-03-15T21:42:52.919Z,11.00
2019-03-15T21:45:22.050Z,10.53
2019-03-15T21:47:51.099Z,14.53
2019-03-15T21:50:21.372Z,7.72
2019-03-15T21:52:50.485Z,11.08
2019-03-15T21:55:19.242Z,19.95
2019-03-15T21:57:48.194Z,10.13
2019-03-15T22:00:18.055Z,13.32
2019-03-15T22:02:47.610Z,12.82
2019-03-15T22:05:16.629Z,12.55
2019-03-15T22:07:45.702Z,12.50
2019-03-15T22:10:17.846Z,10.18
2019-03-15T22:12:46.907Z,9.28
2019-03-15T22:15:15.911Z,8.85
2019-03-15T22:17:44.877Z,12.70
2019-03-15T22:20:15.830Z,11.40
2019-03-15T22:22:44.869Z,13.50
2019-03-15T22:25:13.742Z,11.65
2019-03-15T22:27:42.704Z,9.48
2019-03-15T22:30:14.978Z,9.80
2019-03-15T22:32:43.815Z,10.25
2019-03-15T22:35:12.818Z,11.88
2019-03-15T22:37:41.773Z,14.40
2019-03-15T22:40:12.844Z,6.80
2019-03-15T22:42:41.726Z,10.10
2019-03-15T22:45:14.326Z,12.85
2019-03-15T22:47:43.290Z,10.95
2019-03-15T22:50:13.147Z,16.50
2019-03-15T22:52:42.061Z,14.47
2019-03-15T22:55:11.328Z,13.40
2019-03-15T22:57:40.223Z,14.40
2019-03-15T23:00:16.989Z,12.80
2019-03-15T23:02:46.008Z,13.35
2019-03-15T23:05:15.046Z,13.78
2019-03-15T23:07:43.890Z,17.10
2019-03-15T23:10:12.860Z,10.30
2019-03-15T23:12:41.780Z,15.63
2019-03-15T23:15:11.540Z,13.48
2019-03-15T23:17:40.283Z,13.50
2019-03-15T23:20:11.370Z,11.73
2019-03-15T23:22:40.170Z,10.13
2019-03-15T23:25:09.128Z,11.50
2019-03-15T23:27:37.958Z,14.15
2019-03-15T23:30:17.331Z,11.55
2019-03-15T23:32:46.197Z,16.95
2019-03-15T23:35:15.064Z,14.20
2019-03-15T23:37:43.875Z,9.15
2019-03-15T23:40:13.957Z,11.85
2019-03-15T23:42:43.088Z,13.75
2019-03-15T23:45:11.957Z,14.55
2019-03-15T23:47:40.854Z,17.02
2019-03-15T23:50:14.052Z,12.53
2019-03-15T23:52:43.078Z,14.47
2019-03-15T23:55:12.014Z,11.35
2019-03-15T23:57:40.851Z,12.53
